createdAt,value
2019-02-12T00:01:48.433Z,3.10
2019-02-12T00:04:14.718Z,3.10
2019-02-12T00:06:40.920Z,3.00
2019-02-12T00:09:08.853Z,3.10
2019-02-12T00:11:35.016Z,3.20
2019-02-12T00:14:01.117Z,3.20
2019-02-12T00:16:27.186Z,3.30
2019-02-12T00:18:53.326Z,3.30
2019-02-12T00:21:19.540Z,3.20
2019-02-12T00:23:45.655Z,3.20
2019-02-12T00:26:11.774Z,3.30
2019-02-12T00:28:37.987Z,3.30
2019-02-12T00:31:04.186Z,3.30
2019-02-12T00:33:30.267Z,3.30
2019-02-12T00:35:56.385Z,3.20
2019-02-12T00:38:22.465Z,3.20
2019-02-12T00:40:48.571Z,3.30
2019-02-12T00:43:14.685Z,3.30
2019-02-12T00:45:40.913Z,3.30
2019-02-12T00:48:07.051Z,3.20
2019-02-12T00:50:33.281Z,3.20
2019-02-12T00:52:59.401Z,3.20
2019-02-12T00:55:25.517Z,3.20
2019-02-12T00:57:51.646Z,3.40
2019-02-12T01:00:17.727Z,3.30
2019-02-12T01:02:43.880Z,3.30
2019-02-12T01:05:10.457Z,3.20
2019-02-12T01:07:36.685Z,3.20
2019-02-12T01:10:06.402Z,3.20
2019-02-12T01:12:32.682Z,3.20
2019-02-12T01:14:58.798Z,3.10
2019-02-12T01:17:24.935Z,3.20
2019-02-12T01:19:51.100Z,3.20
2019-02-12T01:22:17.251Z,3.20
2019-02-12T01:24:43.417Z,3.30
2019-02-12T01:27:09.510Z,3.20
2019-02-12T01:29:35.650Z,3.20
2019-02-12T01:32:01.732Z,3.30
2019-02-12T01:34:27.865Z,3.20
2019-02-12T01:36:53.982Z,3.20
2019-02-12T01:39:20.087Z,3.20
2019-02-12T01:41:46.169Z,3.20
2019-02-12T01:44:12.305Z,3.30
2019-02-12T01:46:38.382Z,3.20
2019-02-12T01:49:04.483Z,3.20
2019-02-12T01:51:35.085Z,3.10
2019-02-12T01:53:58.565Z,3.10
2019-02-12T01:56:24.716Z,3.10
2019-02-12T01:58:50.827Z,3.10
2019-02-12T02:01:17.045Z,3.10
2019-02-12T02:03:43.127Z,3.20
2019-02-12T02:06:09.233Z,3.20
2019-02-12T02:08:35.349Z,3.20
2019-02-12T02:11:01.565Z,3.20
2019-02-12T02:13:27.627Z,3.30
2019-02-12T02:15:53.763Z,3.40
2019-02-12T02:18:19.821Z,3.30
2019-02-12T02:20:45.945Z,3.20
2019-02-12T02:23:12.025Z,3.20
2019-02-12T02:25:38.106Z,3.20
2019-02-12T02:28:04.233Z,3.20
2019-02-12T02:30:30.527Z,3.20
2019-02-12T02:32:56.664Z,3.20
2019-02-12T02:35:22.849Z,3.20
2019-02-12T02:37:48.964Z,3.20
2019-02-12T02:40:15.167Z,3.20
2019-02-12T02:42:41.254Z,3.20
2019-02-12T02:45:10.134Z,3.20
2019-02-12T02:47:36.242Z,3.20
2019-02-12T02:50:03.525Z,3.20
2019-02-12T02:52:29.793Z,3.20
2019-02-12T02:54:55.975Z,3.30
2019-02-12T02:57:22.071Z,3.20
2019-02-12T02:59:48.209Z,3.30
2019-02-12T03:02:14.371Z,3.30
2019-02-12T03:04:40.436Z,3.30
2019-02-12T03:07:06.754Z,3.30
2019-02-12T03:09:32.827Z,3.30
2019-02-12T03:11:58.912Z,3.30
2019-02-12T03:14:24.996Z,3.30
2019-02-12T03:16:51.066Z,3.30
2019-02-12T03:19:17.210Z,3.30
2019-02-12T03:21:43.324Z,3.30
2019-02-12T03:24:09.507Z,3.30
2019-02-12T03:26:35.652Z,3.30
2019-02-12T03:29:01.825Z,3.20
2019-02-12T03:31:27.913Z,3.20
2019-02-12T03:33:53.999Z,3.20
2019-02-12T03:36:20.137Z,2.90
2019-02-12T03:38:46.752Z,3.10
2019-02-12T03:41:12.866Z,3.10
2019-02-12T03:43:39.421Z,3.10
2019-02-12T03:46:05.768Z,3.00
2019-02-12T03:48:32.229Z,2.90
2019-02-12T03:50:58.415Z,2.90
2019-02-12T03:53:24.489Z,3.00
2019-02-12T03:55:50.674Z,3.00
2019-02-12T03:58:16.942Z,3.00
2019-02-12T04:00:43.258Z,3.00
2019-02-12T04:03:09.835Z,3.10
2019-02-12T04:05:37.067Z,3.10
2019-02-12T04:08:03.883Z,3.00
2019-02-12T04:10:30.079Z,3.10
2019-02-12T04:12:56.362Z,3.00
2019-02-12T04:15:22.498Z,2.90
2019-02-12T04:17:48.566Z,2.90
2019-02-12T04:20:14.673Z,2.90
2019-02-12T04:22:40.910Z,2.90
2019-02-12T04:25:07.098Z,3.00
2019-02-12T04:27:33.249Z,2.90
2019-02-12T04:29:59.414Z,3.00
2019-02-12T04:32:25.525Z,3.00
2019-02-12T04:34:51.675Z,3.00
2019-02-12T04:37:17.875Z,3.00
2019-02-12T04:39:44.008Z,3.00
2019-02-12T04:42:10.232Z,2.90
2019-02-12T04:44:36.310Z,2.90
2019-02-12T04:47:02.561Z,2.90
2019-02-12T04:49:28.742Z,2.90
2019-02-12T04:51:54.851Z,2.80
2019-02-12T04:54:21.031Z,2.80
2019-02-12T04:56:47.220Z,2.80
2019-02-12T04:59:13.358Z,2.90
2019-02-12T05:01:39.600Z,2.90
2019-02-12T05:04:05.804Z,2.90
2019-02-12T05:06:31.886Z,3.00
2019-02-12T05:09:17.909Z,3.00
2019-02-12T05:11:47.521Z,2.80
2019-02-12T05:14:13.714Z,2.70
2019-02-12T05:16:40.036Z,2.80
2019-02-12T05:19:06.255Z,2.60
2019-02-12T05:21:32.467Z,2.70
2019-02-12T05:23:59.381Z,2.80
2019-02-12T05:26:25.510Z,2.80
2019-02-12T05:28:51.595Z,2.80
2019-02-12T05:31:17.669Z,2.70
2019-02-12T05:33:43.815Z,2.80
2019-02-12T05:36:09.998Z,2.80
2019-02-12T05:38:36.253Z,2.70
2019-02-12T05:41:02.522Z,2.80
2019-02-12T05:43:28.682Z,2.90
2019-02-12T05:45:54.781Z,2.80
2019-02-12T05:48:20.917Z,2.80
2019-02-12T05:50:47.080Z,2.80
2019-02-12T05:53:13.249Z,2.80
2019-02-12T05:55:39.398Z,2.80
2019-02-12T05:58:05.463Z,2.90
2019-02-12T06:00:33.385Z,2.90
2019-02-12T06:02:59.481Z,2.90
2019-02-12T06:05:27.279Z,3.00
2019-02-12T06:07:53.397Z,2.90
2019-02-12T06:10:19.727Z,2.80
2019-02-12T06:12:45.915Z,2.90
2019-02-12T06:15:12.061Z,2.80
2019-02-12T06:17:38.207Z,2.90
2019-02-12T06:20:06.128Z,2.90
2019-02-12T06:22:32.223Z,2.80
2019-02-12T06:24:58.465Z,2.80
2019-02-12T06:27:24.658Z,2.80
2019-02-12T06:29:50.819Z,2.80
2019-02-12T06:32:17.056Z,2.80
2019-02-12T06:34:43.235Z,2.80
2019-02-12T06:37:09.535Z,2.80
2019-02-12T06:39:55.741Z,2.80
2019-02-12T06:42:22.325Z,2.70
2019-02-12T06:44:48.429Z,2.80
2019-02-12T06:47:14.554Z,2.80
2019-02-12T06:49:40.683Z,2.80
2019-02-12T06:52:06.761Z,2.70
2019-02-12T06:54:33.003Z,2.70
2019-02-12T06:56:59.178Z,2.70
2019-02-12T06:59:25.280Z,2.80
2019-02-12T07:01:55.334Z,2.70
2019-02-12T07:04:21.446Z,2.70
2019-02-12T07:06:54.142Z,2.80
2019-02-12T07:09:27.363Z,2.90
2019-02-12T07:11:57.347Z,2.80
2019-02-12T07:14:39.313Z,2.90
2019-02-12T07:17:12.251Z,2.80
2019-02-12T07:20:00.544Z,2.80
2019-02-12T07:22:38.822Z,2.80
2019-02-12T07:25:21.058Z,2.80
2019-02-12T07:27:53.886Z,2.70
2019-02-12T07:30:32.400Z,2.70
2019-02-12T07:33:17.787Z,2.80
2019-02-12T07:35:56.808Z,2.80
2019-02-12T07:38:32.620Z,2.90
2019-02-12T07:41:19.950Z,2.80
2019-02-12T07:43:54.990Z,2.80
2019-02-12T07:46:41.894Z,2.90
2019-02-12T07:49:14.538Z,2.90
2019-02-12T07:51:47.042Z,2.90
2019-02-12T07:54:33.683Z,2.90
2019-02-12T07:57:18.582Z,2.90
2019-02-12T07:59:54.673Z,2.90
2019-02-12T08:02:27.410Z,3.00
2019-02-12T08:05:03.176Z,3.20
2019-02-12T08:07:33.107Z,3.20
2019-02-12T08:10:06.252Z,3.30
2019-02-12T08:12:36.228Z,3.30
2019-02-12T08:15:18.422Z,3.30
2019-02-12T08:18:09.341Z,3.40
2019-02-12T08:21:01.812Z,3.30
2019-02-12T08:23:56.502Z,3.30
2019-02-12T08:26:29.388Z,3.20
2019-02-12T08:29:17.809Z,3.30
2019-02-12T08:32:07.013Z,3.40
2019-02-12T08:35:05.778Z,3.50
2019-02-12T08:37:41.941Z,3.40
2019-02-12T08:40:31.846Z,3.40
2019-02-12T08:43:11.120Z,3.40
2019-02-12T08:45:47.330Z,3.50
2019-02-12T08:48:19.994Z,3.60
2019-02-12T08:51:01.888Z,3.60
2019-02-12T08:53:50.322Z,3.50
2019-02-12T08:56:39.528Z,3.50
2019-02-12T08:59:12.475Z,3.50
2019-02-12T09:01:45.458Z,3.50
2019-02-12T09:04:36.741Z,3.60
2019-02-12T09:07:18.743Z,3.60
2019-02-12T09:10:17.286Z,3.40
2019-02-12T09:13:04.280Z,3.40
2019-02-12T09:15:52.521Z,3.50
2019-02-12T09:18:42.157Z,3.60
2019-02-12T09:21:18.097Z,3.60
2019-02-12T09:24:02.987Z,3.50
2019-02-12T09:26:34.823Z,3.80
2019-02-12T09:29:16.885Z,3.80
2019-02-12T09:31:59.135Z,3.90
2019-02-12T09:34:31.689Z,3.90
2019-02-12T09:37:22.534Z,3.90
2019-02-12T09:40:19.282Z,3.70
2019-02-12T09:42:48.353Z,3.80
2019-02-12T09:45:30.512Z,3.80
2019-02-12T09:48:00.455Z,3.90
2019-02-12T09:50:47.291Z,4.00
2019-02-12T09:53:19.965Z,4.00
2019-02-12T09:56:01.731Z,4.20
2019-02-12T09:59:02.391Z,4.20
2019-02-12T10:01:47.291Z,4.30
2019-02-12T10:04:19.987Z,4.50
2019-02-12T10:06:55.667Z,4.80
2019-02-12T10:09:31.385Z,4.50
2019-02-12T10:12:01.334Z,4.40
2019-02-12T10:14:49.680Z,4.50
2019-02-12T10:17:37.431Z,4.40
2019-02-12T10:20:19.623Z,4.70
2019-02-12T10:22:55.759Z,4.80
2019-02-12T10:25:23.212Z,4.60
2019-02-12T10:28:08.710Z,4.70
2019-02-12T10:30:38.973Z,4.60
2019-02-12T10:33:05.091Z,4.50
2019-02-12T10:35:31.308Z,4.30
2019-02-12T10:37:57.427Z,4.40
2019-02-12T10:40:23.605Z,4.20
2019-02-12T10:42:49.761Z,4.30
2019-02-12T10:45:15.937Z,4.40
2019-02-12T10:47:42.114Z,4.60
2019-02-12T10:50:08.455Z,4.60
2019-02-12T10:52:34.644Z,4.70
2019-02-12T10:55:00.718Z,4.70
2019-02-12T10:57:26.847Z,4.80
2019-02-12T10:59:53.083Z,4.90
2019-02-12T11:02:19.240Z,4.80
2019-02-12T11:04:45.420Z,4.80
2019-02-12T11:07:11.529Z,4.70
2019-02-12T11:09:37.610Z,4.70
2019-02-12T11:12:03.784Z,4.80
2019-02-12T11:14:29.928Z,4.70
2019-02-12T11:16:56.022Z,4.80
2019-02-12T11:19:22.162Z,4.80
2019-02-12T11:21:48.282Z,4.80
2019-02-12T11:24:14.374Z,4.70
2019-02-12T11:26:40.506Z,4.80
2019-02-12T11:29:06.798Z,4.70
2019-02-12T11:31:32.933Z,4.70
2019-02-12T11:33:59.127Z,4.60
2019-02-12T11:36:25.223Z,4.60
2019-02-12T11:38:51.473Z,4.60
2019-02-12T11:41:17.640Z,4.60
2019-02-12T11:43:43.764Z,4.60
2019-02-12T11:46:09.886Z,4.60
2019-02-12T11:48:36.105Z,4.70
2019-02-12T11:51:02.454Z,4.70
2019-02-12T11:53:28.660Z,4.70
2019-02-12T11:55:54.750Z,4.80
2019-02-12T11:58:20.844Z,4.70
2019-02-12T12:00:48.912Z,4.80
2019-02-12T12:03:14.990Z,4.70
2019-02-12T12:05:41.158Z,4.80
2019-02-12T12:08:07.324Z,4.80
2019-02-12T12:10:33.562Z,4.70
2019-02-12T12:12:59.794Z,4.80
2019-02-12T12:15:25.958Z,4.90
2019-02-12T12:17:52.316Z,4.90
2019-02-12T12:20:18.592Z,4.90
2019-02-12T12:22:44.787Z,4.90
2019-02-12T12:25:11.684Z,4.80
2019-02-12T12:27:37.983Z,4.80
2019-02-12T12:30:10.886Z,4.80
2019-02-12T12:32:37.040Z,4.90
2019-02-12T12:35:05.434Z,5.10
2019-02-12T12:37:31.569Z,5.00
2019-02-12T12:39:57.689Z,5.00
2019-02-12T12:42:23.817Z,4.90
2019-02-12T12:44:49.973Z,4.90
2019-02-12T12:47:16.043Z,4.90
2019-02-12T12:49:42.137Z,5.00
2019-02-12T12:52:08.292Z,5.00
2019-02-12T12:54:34.493Z,5.00
2019-02-12T12:57:00.727Z,5.00
2019-02-12T12:59:27.043Z,5.10
2019-02-12T13:01:53.336Z,5.10
2019-02-12T13:04:19.544Z,5.10
2019-02-12T13:06:45.656Z,5.00
2019-02-12T13:09:11.793Z,5.10
2019-02-12T13:11:37.873Z,5.00
2019-02-12T13:14:03.990Z,4.90
2019-02-12T13:16:30.117Z,4.90
2019-02-12T13:18:56.353Z,4.90
2019-02-12T13:21:22.433Z,4.90
2019-02-12T13:23:48.514Z,4.80
2019-02-12T13:26:14.669Z,4.80
2019-02-12T13:28:40.753Z,4.70
2019-02-12T13:31:06.911Z,4.70
2019-02-12T13:33:33.128Z,4.70
2019-02-12T13:35:59.279Z,4.80
2019-02-12T13:38:25.524Z,4.80
2019-02-12T13:40:51.759Z,4.70
2019-02-12T13:43:17.933Z,4.70
2019-02-12T13:45:44.045Z,4.70
2019-02-12T13:48:10.132Z,4.70
2019-02-12T13:50:36.321Z,4.80
2019-02-12T13:53:02.484Z,4.70
2019-02-12T13:55:28.611Z,4.70
2019-02-12T13:57:54.770Z,4.70
2019-02-12T14:00:21.005Z,4.70
2019-02-12T14:02:49.752Z,4.70
2019-02-12T14:05:22.140Z,4.70
2019-02-12T14:07:48.373Z,4.70
2019-02-12T14:10:14.475Z,4.70
2019-02-12T14:12:40.783Z,4.70
2019-02-12T14:15:09.803Z,4.70
2019-02-12T14:17:36.342Z,4.60
2019-02-12T14:20:13.991Z,4.60
2019-02-12T14:22:40.334Z,4.60
2019-02-12T14:25:09.139Z,4.70
2019-02-12T14:27:35.281Z,4.80
2019-02-12T14:30:02.113Z,4.70
2019-02-12T14:32:28.485Z,4.70
2019-02-12T14:34:54.783Z,4.70
2019-02-12T14:37:20.927Z,4.70
2019-02-12T14:39:47.139Z,4.70
2019-02-12T14:42:13.259Z,4.60
2019-02-12T14:44:39.509Z,4.70
2019-02-12T14:47:05.601Z,4.70
2019-02-12T14:49:31.705Z,4.70
2019-02-12T14:51:57.825Z,4.80
2019-02-12T14:54:23.956Z,4.80
2019-02-12T14:56:50.161Z,4.80
2019-02-12T14:59:16.265Z,4.80
2019-02-12T15:01:42.420Z,4.80
2019-02-12T15:04:08.627Z,4.80
2019-02-12T15:06:34.825Z,4.80
2019-02-12T15:09:00.919Z,4.90
2019-02-12T15:11:27.015Z,4.80
2019-02-12T15:13:53.107Z,4.70
2019-02-12T15:16:19.221Z,4.70
2019-02-12T15:18:45.289Z,4.70
2019-02-12T15:21:11.371Z,4.70
2019-02-12T15:23:37.531Z,4.60
2019-02-12T15:26:03.626Z,4.70
2019-02-12T15:28:30.037Z,4.70
2019-02-12T15:30:56.148Z,4.70
2019-02-12T15:33:22.301Z,4.70
2019-02-12T15:35:48.499Z,4.70
2019-02-12T15:38:14.593Z,4.60
2019-02-12T15:40:40.680Z,4.60
2019-02-12T15:43:06.849Z,4.60
2019-02-12T15:45:33.076Z,4.50
2019-02-12T15:47:59.253Z,4.60
2019-02-12T15:50:25.410Z,4.60
2019-02-12T15:52:51.583Z,4.60
2019-02-12T15:55:17.714Z,4.70
2019-02-12T15:57:45.931Z,4.70
2019-02-12T16:00:18.603Z,4.70
2019-02-12T16:02:46.228Z,4.70
2019-02-12T16:05:12.550Z,4.60
2019-02-12T16:07:38.866Z,4.60
2019-02-12T16:10:10.385Z,4.70
2019-02-12T16:12:36.575Z,4.70
2019-02-12T16:15:06.003Z,4.60
2019-02-12T16:17:32.166Z,4.50
2019-02-12T16:19:58.389Z,4.50
2019-02-12T16:22:24.665Z,4.50
2019-02-12T16:24:50.764Z,4.40
2019-02-12T16:27:16.867Z,4.40
2019-02-12T16:29:43.076Z,4.40
2019-02-12T16:32:09.204Z,4.50
2019-02-12T16:34:35.301Z,4.50
2019-02-12T16:37:01.380Z,4.50
2019-02-12T16:39:27.462Z,4.50
2019-02-12T16:41:53.555Z,4.40
2019-02-12T16:44:19.730Z,4.30
2019-02-12T16:46:46.044Z,4.30
2019-02-12T16:49:12.242Z,4.70
2019-02-12T16:51:38.466Z,4.70
2019-02-12T16:54:04.560Z,4.80
2019-02-12T16:56:30.653Z,4.60
2019-02-12T16:59:03.427Z,4.50
2019-02-12T17:01:24.890Z,4.40
2019-02-12T17:03:50.995Z,4.40
2019-02-12T17:06:17.140Z,4.40
2019-02-12T17:08:43.289Z,4.30
2019-02-12T17:11:09.488Z,4.40
2019-02-12T17:13:35.816Z,4.40
2019-02-12T17:16:02.255Z,4.40
2019-02-12T17:18:28.438Z,4.40
2019-02-12T17:20:54.589Z,4.30
2019-02-12T17:23:20.770Z,4.40
2019-02-12T17:25:46.938Z,4.20
2019-02-12T17:28:13.164Z,4.10
2019-02-12T17:30:39.340Z,4.20
2019-02-12T17:33:05.426Z,4.20
2019-02-12T17:35:31.590Z,4.20
2019-02-12T17:37:57.713Z,4.20
2019-02-12T17:40:23.808Z,4.20
2019-02-12T17:42:49.962Z,4.10
2019-02-12T17:45:17.423Z,4.20
2019-02-12T17:47:43.697Z,4.10
2019-02-12T17:50:11.819Z,4.10
2019-02-12T17:52:37.921Z,4.00
2019-02-12T17:55:05.876Z,4.10
2019-02-12T17:57:33.456Z,4.10
2019-02-12T17:59:59.799Z,4.10
2019-02-12T18:02:25.952Z,4.10
2019-02-12T18:04:52.160Z,4.10
2019-02-12T18:07:18.272Z,4.20
2019-02-12T18:09:44.372Z,4.30
2019-02-12T18:12:10.482Z,4.20
2019-02-12T18:14:36.832Z,4.30
2019-02-12T18:17:03.356Z,4.20
2019-02-12T18:19:29.589Z,4.20
2019-02-12T18:21:55.654Z,4.10
2019-02-12T18:24:21.802Z,4.10
2019-02-12T18:26:47.886Z,4.10
2019-02-12T18:29:14.035Z,4.10
2019-02-12T18:31:40.266Z,4.10
2019-02-12T18:34:06.463Z,4.10
2019-02-12T18:36:32.622Z,4.20
2019-02-12T18:38:58.905Z,4.20
2019-02-12T18:41:25.039Z,4.20
2019-02-12T18:43:51.169Z,4.10
2019-02-12T18:46:18.300Z,4.20
2019-02-12T18:48:44.491Z,4.20
2019-02-12T18:51:10.679Z,4.20
2019-02-12T18:53:36.934Z,4.30
2019-02-12T18:56:03.366Z,4.30
2019-02-12T18:58:29.449Z,4.30
2019-02-12T19:00:55.612Z,4.20
2019-02-12T19:03:21.700Z,4.30
2019-02-12T19:05:47.815Z,4.30
2019-02-12T19:08:13.968Z,4.30
2019-02-12T19:10:40.300Z,4.30
2019-02-12T19:13:06.542Z,4.40
2019-02-12T19:15:32.662Z,4.40
2019-02-12T19:18:07.953Z,4.40
2019-02-12T19:20:34.127Z,4.30
2019-02-12T19:23:00.304Z,4.30
2019-02-12T19:25:26.399Z,4.30
2019-02-12T19:27:52.533Z,4.30
2019-02-12T19:30:18.660Z,4.30
2019-02-12T19:32:44.864Z,4.30
2019-02-12T19:35:11.164Z,4.30
2019-02-12T19:37:37.337Z,4.40
2019-02-12T19:40:06.820Z,4.50
2019-02-12T19:42:33.137Z,4.50
2019-02-12T19:44:59.317Z,4.40
2019-02-12T19:47:25.423Z,4.40
2019-02-12T19:49:51.594Z,4.40
2019-02-12T19:52:17.836Z,4.50
2019-02-12T19:54:44.124Z,4.50
2019-02-12T19:57:10.608Z,4.40
2019-02-12T19:59:37.101Z,4.40
2019-02-12T20:02:03.620Z,4.40
2019-02-12T20:04:29.785Z,4.30
2019-02-12T20:06:55.906Z,4.40
2019-02-12T20:09:22.028Z,4.40
2019-02-12T20:11:48.455Z,4.40
2019-02-12T20:14:14.607Z,4.30
2019-02-12T20:16:40.802Z,4.40
2019-02-12T20:19:06.887Z,4.50
2019-02-12T20:21:33.030Z,4.40
2019-02-12T20:23:59.206Z,4.40
2019-02-12T20:26:25.462Z,4.40
2019-02-12T20:28:51.695Z,4.40
2019-02-12T20:31:18.018Z,4.40
2019-02-12T20:33:44.213Z,4.40
2019-02-12T20:36:10.376Z,4.60
2019-02-12T20:38:36.485Z,4.60
2019-02-12T20:41:02.715Z,4.50
2019-02-12T20:43:28.927Z,4.40
2019-02-12T20:45:55.185Z,4.30
2019-02-12T20:48:21.429Z,4.50
2019-02-12T20:50:47.628Z,4.50
2019-02-12T20:53:13.859Z,4.50
2019-02-12T20:55:39.956Z,4.50
2019-02-12T20:58:06.139Z,4.40
2019-02-12T21:00:32.312Z,4.40
2019-02-12T21:02:58.515Z,4.50
2019-02-12T21:05:24.622Z,4.50
2019-02-12T21:07:50.777Z,4.40
2019-02-12T21:10:19.468Z,4.50
2019-02-12T21:12:45.802Z,4.40
2019-02-12T21:15:20.530Z,4.40
2019-02-12T21:17:46.630Z,4.40
2019-02-12T21:20:12.706Z,4.40
2019-02-12T21:22:39.559Z,4.40
2019-02-12T21:25:08.245Z,4.40
2019-02-12T21:27:34.397Z,4.30
2019-02-12T21:30:00.677Z,4.30
2019-02-12T21:32:26.819Z,4.30
2019-02-12T21:34:52.960Z,4.20
2019-02-12T21:37:19.072Z,4.30
2019-02-12T21:39:45.140Z,4.20
2019-02-12T21:42:11.274Z,4.20
2019-02-12T21:44:37.434Z,4.20
2019-02-12T21:47:03.857Z,4.20
2019-02-12T21:49:30.131Z,4.20
2019-02-12T21:51:56.316Z,4.10
2019-02-12T21:54:22.443Z,4.00
2019-02-12T21:56:48.560Z,4.00
2019-02-12T21:59:14.656Z,4.10
2019-02-12T22:01:40.740Z,4.00
2019-02-12T22:04:06.890Z,4.00
2019-02-12T22:06:33.096Z,4.00
2019-02-12T22:08:59.181Z,4.10
2019-02-12T22:11:25.329Z,4.00
2019-02-12T22:13:51.524Z,4.00
2019-02-12T22:16:17.616Z,4.00
2019-02-12T22:18:43.754Z,3.90
2019-02-12T22:21:09.944Z,3.90
2019-02-12T22:23:36.069Z,3.90
2019-02-12T22:26:02.286Z,3.90
2019-02-12T22:28:28.388Z,4.00
2019-02-12T22:30:54.554Z,4.00
2019-02-12T22:33:20.778Z,4.00
2019-02-12T22:35:46.871Z,4.00
2019-02-12T22:38:13.012Z,4.00
2019-02-12T22:40:39.236Z,4.00
2019-02-12T22:43:05.555Z,4.00
2019-02-12T22:45:31.791Z,4.00
2019-02-12T22:47:57.879Z,4.00
2019-02-12T22:50:23.994Z,4.00
2019-02-12T22:52:50.127Z,3.90
2019-02-12T22:55:16.340Z,4.00
2019-02-12T22:57:48.979Z,4.00
2019-02-12T23:00:49.659Z,4.00
2019-02-12T23:03:16.063Z,4.00
2019-02-12T23:05:42.243Z,4.00
2019-02-12T23:08:08.389Z,3.90
2019-02-12T23:10:34.577Z,3.90
2019-02-12T23:13:00.694Z,3.90
2019-02-12T23:15:26.863Z,3.90
2019-02-12T23:17:53.035Z,4.00
2019-02-12T23:20:19.182Z,3.90
2019-02-12T23:22:45.364Z,3.90
2019-02-12T23:25:11.483Z,3.90
2019-02-12T23:27:37.738Z,3.80
2019-02-12T23:30:07.223Z,3.90
2019-02-12T23:32:33.363Z,3.80
2019-02-12T23:34:59.525Z,3.80
2019-02-12T23:37:25.605Z,3.80
2019-02-12T23:39:51.718Z,3.70
2019-02-12T23:42:17.968Z,3.70
2019-02-12T23:44:44.180Z,3.70
2019-02-12T23:47:10.281Z,3.80
2019-02-12T23:49:36.419Z,3.80
2019-02-12T23:52:02.717Z,3.70
2019-02-12T23:54:28.806Z,3.60
2019-02-12T23:56:54.946Z,3.50
2019-02-12T23:59:21.019Z,3.50
